createdAt,value
2018-07-19T00:00:45.385Z,101228.71
2018-07-19T00:05:48.489Z,101220.05
2018-07-19T00:10:51.622Z,101214.50
2018-07-19T00:15:54.786Z,101214.84
2018-07-19T00:20:58.105Z,101216.40
2018-07-19T00:26:01.341Z,101217.02
2018-07-19T00:31:04.505Z,101221.52
2018-07-19T00:36:07.858Z,101223.30
2018-07-19T00:41:11.052Z,101229.44
2018-07-19T00:46:14.193Z,101227.56
2018-07-19T00:51:17.380Z,101229.00
2018-07-19T00:56:20.543Z,101217.23
2018-07-19T01:01:23.660Z,101216.48
2018-07-19T01:06:26.814Z,101218.80
2018-07-19T01:11:29.961Z,101215.09
2018-07-19T01:16:33.088Z,101213.88
2018-07-19T01:21:36.316Z,101218.04
2018-07-19T01:26:39.460Z,101216.97
2018-07-19T01:31:42.637Z,101214.55
2018-07-19T01:36:47.904Z,101210.30
2018-07-19T01:42:29.632Z,101212.81
2018-07-19T01:47:32.739Z,101216.84
2018-07-19T01:52:35.925Z,101219.35
2018-07-19T01:57:39.011Z,101221.09
2018-07-19T02:02:42.115Z,101219.30
2018-07-19T02:07:45.229Z,101220.94
2018-07-19T02:12:48.314Z,101223.45
2018-07-19T02:17:51.423Z,101224.53
2018-07-19T02:22:54.539Z,101231.47
2018-07-19T02:27:57.757Z,101228.28
2018-07-19T02:33:00.885Z,101227.88
2018-07-19T02:38:04.074Z,101227.80
2018-07-19T02:43:07.200Z,101229.27
2018-07-19T02:48:10.363Z,101224.89
2018-07-19T02:53:13.414Z,101225.92
2018-07-19T02:58:16.570Z,101223.99
2018-07-19T03:03:19.712Z,101232.31
2018-07-19T03:08:22.950Z,101224.81
2018-07-19T03:13:26.925Z,101231.42
2018-07-19T03:18:30.167Z,101226.05
2018-07-19T03:23:33.404Z,101222.55
2018-07-19T03:28:36.540Z,101222.36
2018-07-19T03:33:39.661Z,101231.34
2018-07-19T03:38:42.780Z,101232.17
2018-07-19T03:43:45.877Z,101238.02
2018-07-19T03:48:48.977Z,101235.91
2018-07-19T03:53:52.088Z,101231.69
2018-07-19T03:58:55.265Z,101238.81
2018-07-19T04:03:58.452Z,101234.67
2018-07-19T04:09:01.645Z,101232.43
2018-07-19T04:14:04.905Z,101232.28
2018-07-19T04:19:07.989Z,101238.34
2018-07-19T04:24:11.055Z,101242.73
2018-07-19T04:29:14.196Z,101248.02
2018-07-19T04:34:17.313Z,101251.42
2018-07-19T04:39:20.474Z,101238.33
2018-07-19T04:44:23.605Z,101239.72
2018-07-19T04:49:27.610Z,101244.94
2018-07-19T04:54:30.863Z,101252.78
2018-07-19T04:59:34.101Z,101254.24
2018-07-19T05:04:37.510Z,101256.45
2018-07-19T05:11:37.177Z,101260.76
2018-07-19T05:16:40.383Z,101259.11
2018-07-19T05:21:43.544Z,101268.38
2018-07-19T05:26:46.680Z,101266.31
2018-07-19T05:31:49.875Z,101263.19
2018-07-19T05:36:53.065Z,101262.98
2018-07-19T05:41:56.289Z,101253.06
2018-07-19T05:46:59.496Z,101256.67
2018-07-19T05:52:02.707Z,101259.22
2018-07-19T05:57:05.863Z,101250.00
2018-07-19T06:02:09.104Z,101253.17
2018-07-19T06:07:12.321Z,101258.11
2018-07-19T06:12:15.430Z,101263.53
2018-07-19T06:17:18.583Z,101265.38
2018-07-19T06:22:21.763Z,101258.03
2018-07-19T06:27:24.979Z,101266.78
2018-07-19T06:32:28.222Z,101260.37
2018-07-19T06:37:31.450Z,101262.95
2018-07-19T06:42:34.708Z,101256.92
2018-07-19T06:47:37.864Z,101254.27
2018-07-19T06:52:41.075Z,101257.73
2018-07-19T06:57:44.187Z,101255.80
2018-07-19T07:02:51.388Z,101260.56
2018-07-19T07:07:54.939Z,101263.59
2018-07-19T07:12:58.213Z,101266.41
2018-07-19T07:18:01.528Z,101270.75
2018-07-19T07:23:04.797Z,101269.78
2018-07-19T07:28:20.646Z,101276.88
2018-07-19T07:33:23.769Z,101279.03
2018-07-19T07:38:27.037Z,101281.09
2018-07-19T07:43:30.358Z,101283.05
2018-07-19T07:48:33.530Z,101292.98
2018-07-19T07:58:45.971Z,101291.66
2018-07-19T08:03:58.365Z,101284.13
2018-07-19T08:09:02.173Z,101284.70
2018-07-19T08:14:05.277Z,101281.11
2018-07-19T08:19:08.372Z,101280.38
2018-07-19T08:24:11.615Z,101276.58
2018-07-19T08:29:14.787Z,101272.23
2018-07-19T08:34:17.912Z,101287.45
2018-07-19T08:39:21.127Z,101282.78
2018-07-19T08:44:27.315Z,101283.87
2018-07-19T08:49:30.479Z,101284.20
2018-07-19T08:54:35.747Z,101298.82
2018-07-19T08:59:40.154Z,101282.17
2018-07-19T09:04:43.332Z,101287.50
2018-07-19T09:09:46.558Z,101289.96
2018-07-19T09:14:49.692Z,101287.00
2018-07-19T09:19:53.036Z,101285.23
2018-07-19T09:24:56.151Z,101296.07
2018-07-19T09:29:59.306Z,101288.20
2018-07-19T09:35:02.565Z,101288.49
2018-07-19T09:40:05.760Z,101287.47
2018-07-19T09:45:08.999Z,101294.98
2018-07-19T09:50:12.259Z,101291.25
2018-07-19T09:55:15.638Z,101295.78
2018-07-19T10:00:19.464Z,101297.50
2018-07-19T10:05:22.593Z,101309.14
2018-07-19T10:10:25.685Z,101307.48
2018-07-19T10:15:29.161Z,101301.87
2018-07-19T10:20:32.323Z,101306.41
2018-07-19T10:25:35.604Z,101309.88
2018-07-19T10:30:38.860Z,101302.84
2018-07-19T10:35:44.159Z,101302.07
2018-07-19T10:40:47.353Z,101298.31
2018-07-19T10:45:50.780Z,101298.91
2018-07-19T10:50:53.940Z,101299.95
2018-07-19T10:55:57.060Z,101297.37
2018-07-19T11:01:00.293Z,101299.30
2018-07-19T11:06:03.634Z,101295.58
2018-07-19T11:11:07.055Z,101294.55
2018-07-19T11:16:10.267Z,101287.72
2018-07-19T11:21:17.594Z,101295.17
2018-07-19T11:26:20.699Z,101298.17
2018-07-19T11:31:23.898Z,101291.83
2018-07-19T11:36:27.069Z,101294.13
2018-07-19T11:41:30.222Z,101293.16
2018-07-19T11:46:33.490Z,101291.20
2018-07-19T11:51:36.839Z,101281.47
2018-07-19T11:56:40.074Z,101274.39
2018-07-19T12:01:43.379Z,101270.42
2018-07-19T12:06:46.543Z,101273.95
2018-07-19T12:11:49.691Z,101262.23
2018-07-19T12:16:52.824Z,101267.87
2018-07-19T12:21:56.018Z,101261.44
2018-07-19T12:26:59.164Z,101265.61
2018-07-19T12:32:02.499Z,101273.14
2018-07-19T12:37:05.733Z,101266.86
2018-07-19T12:42:09.035Z,101266.69
2018-07-19T12:47:12.208Z,101268.34
2018-07-19T12:52:15.352Z,101267.63
2018-07-19T12:57:18.756Z,101270.55
2018-07-19T13:02:22.102Z,101268.38
2018-07-19T13:07:25.535Z,101262.54
2018-07-19T13:12:28.827Z,101256.08
2018-07-19T13:17:32.203Z,101253.25
2018-07-19T13:22:35.378Z,101249.17
2018-07-19T13:27:38.618Z,101245.16
2018-07-19T13:32:41.732Z,101241.72
2018-07-19T13:37:44.916Z,101246.00
2018-07-19T13:42:48.168Z,101239.04
2018-07-19T13:47:51.409Z,101241.16
2018-07-19T13:53:28.197Z,101233.13
2018-07-19T13:58:31.428Z,101231.20
2018-07-19T14:03:34.850Z,101217.27
2018-07-19T14:08:38.155Z,101227.11
2018-07-19T14:13:41.321Z,101220.78
2018-07-19T14:18:44.467Z,101215.03
2018-07-19T14:28:30.177Z,101214.45
2018-07-19T14:33:33.559Z,101212.27
2018-07-19T14:38:36.864Z,101212.00
2018-07-19T14:45:09.037Z,101198.19
2018-07-19T14:50:18.313Z,101196.14
2018-07-19T14:55:27.854Z,101197.04
2018-07-19T15:01:29.850Z,101184.87
2018-07-19T15:06:38.477Z,101191.69
2018-07-19T15:11:47.700Z,101182.23
2018-07-19T15:16:57.298Z,101186.27
2018-07-19T15:22:06.625Z,101176.69
2018-07-19T15:27:15.575Z,101173.58
2018-07-19T15:32:24.611Z,101166.35
2018-07-19T15:37:33.958Z,101159.45
2018-07-19T15:42:43.314Z,101166.17
2018-07-19T15:47:52.020Z,101167.08
2018-07-19T15:53:00.931Z,101162.67
2018-07-19T15:58:10.656Z,101162.20
2018-07-19T16:03:20.231Z,101161.23
2018-07-19T16:08:29.612Z,101166.98
2018-07-19T16:13:38.347Z,101162.25
2018-07-19T16:18:47.144Z,101163.02
2018-07-19T16:23:56.310Z,101162.39
2018-07-19T16:29:05.166Z,101151.30
2018-07-19T16:34:13.839Z,101168.26
2018-07-19T16:39:22.860Z,101159.80
2018-07-19T16:44:31.776Z,101157.17
2018-07-19T16:49:41.069Z,101160.78
2018-07-19T16:54:50.150Z,101161.98
2018-07-19T16:59:59.586Z,101156.02
2018-07-19T17:05:08.526Z,101154.63
2018-07-19T17:10:17.949Z,101152.77
2018-07-19T17:15:27.201Z,101156.28
2018-07-19T17:20:36.640Z,101165.84
2018-07-19T17:25:45.365Z,101148.93
2018-07-19T17:30:54.433Z,101164.62
2018-07-19T17:36:03.735Z,101170.95
2018-07-19T17:41:12.702Z,101167.89
2018-07-19T17:46:21.890Z,101179.41
2018-07-19T17:51:31.126Z,101189.30
2018-07-19T17:56:40.516Z,101181.41
2018-07-19T18:01:49.802Z,101179.41
2018-07-19T18:06:58.331Z,101185.82
2018-07-19T18:12:07.780Z,101200.02
2018-07-19T18:17:17.176Z,101189.20
2018-07-19T18:22:26.719Z,101192.16
2018-07-19T18:27:36.066Z,101208.53
2018-07-19T18:32:45.174Z,101215.91
2018-07-19T18:37:56.520Z,101220.73
2018-07-19T18:43:06.011Z,101220.62
2018-07-19T18:48:15.287Z,101228.02
2018-07-19T18:53:24.844Z,101223.66
2018-07-19T18:58:34.064Z,101234.38
2018-07-19T19:03:43.577Z,101232.72
2018-07-19T19:08:53.131Z,101233.08
2018-07-19T19:14:02.894Z,101238.13
2018-07-19T19:19:12.036Z,101244.90
2018-07-19T19:24:23.282Z,101249.38
2018-07-19T19:29:32.439Z,101258.66
2018-07-19T19:34:41.617Z,101259.09
2018-07-19T19:39:50.771Z,101258.54
2018-07-19T19:45:00.313Z,101267.77
2018-07-19T19:50:09.225Z,101271.47
2018-07-19T19:55:18.527Z,101268.49
2018-07-19T20:00:27.954Z,101268.35
2018-07-19T20:05:37.445Z,101263.69
2018-07-19T20:10:46.604Z,101262.75
2018-07-19T20:15:55.940Z,101263.48
2018-07-19T20:21:05.320Z,101262.53
2018-07-19T20:26:17.752Z,101266.50
2018-07-19T20:31:27.018Z,101269.99
2018-07-19T20:42:03.729Z,101264.34
2018-07-19T20:47:12.511Z,101267.24
2018-07-19T20:52:21.939Z,101264.59
2018-07-19T20:57:31.673Z,101270.72
2018-07-19T21:02:42.864Z,101262.05
2018-07-19T21:07:52.402Z,101270.47
2018-07-19T21:13:01.412Z,101269.39
2018-07-19T21:18:10.320Z,101269.95
2018-07-19T21:23:19.545Z,101266.86
2018-07-19T21:28:29.361Z,101270.15
2018-07-19T21:33:38.478Z,101267.36
2018-07-19T21:38:47.962Z,101262.87
2018-07-19T21:43:57.354Z,101275.86
2018-07-19T21:49:06.794Z,101278.13
2018-07-19T21:54:16.287Z,101271.15
2018-07-19T21:59:25.688Z,101269.09
2018-07-19T22:04:34.276Z,101268.88
2018-07-19T22:09:43.585Z,101267.98
2018-07-19T22:14:52.278Z,101268.23
2018-07-19T22:20:02.256Z,101276.09
2018-07-19T22:25:10.992Z,101275.16
2018-07-19T22:30:19.940Z,101277.16
2018-07-19T22:35:29.240Z,101278.84
2018-07-19T22:40:38.324Z,101286.70
2018-07-19T22:45:46.878Z,101286.22
2018-07-19T22:50:56.373Z,101284.14
2018-07-19T22:56:06.581Z,101289.12
2018-07-19T23:01:15.803Z,101286.91
2018-07-19T23:06:24.847Z,101289.51
2018-07-19T23:11:34.576Z,101290.44
2018-07-19T23:16:43.715Z,101287.28
2018-07-19T23:21:53.125Z,101291.02
2018-07-19T23:27:02.126Z,101291.77
2018-07-19T23:32:11.345Z,101290.13
2018-07-19T23:37:20.689Z,101286.66
2018-07-19T23:42:30.806Z,101294.63
2018-07-19T23:47:41.548Z,101288.84
2018-07-19T23:52:50.146Z,101288.22
2018-07-19T23:57:58.833Z,101286.79
